Terminal Aerodrome Forecast
Issued by NWS

Home | Current Version | Previous Version | Text Only | Print | Product List | Glossary On
Versions: 1 2 3 4 5 6 7 8 9 10 11 12 13 14 15
000
FTUS46 KMTR 241100
TAFSTS
TAF
KSTS 241125Z 2412/2512 VRB03KT 1SM BR BKN002
     FM241600 00000KT P6SM SCT005 BKN250
     FM241900 18008KT P6SM BKN250
     FM250300 15005KT P6SM BKN050=

USA.gov is the U.S. government's official web portal to all federal, state and local government web resources and services.